sensor_id;sensor_type;location;lat;lon;timestamp;temperature;humidity
6540;DHT22;50344;51.142;16.892;2024-01-30T00:01:20;21.00;58.50
6540;DHT22;50344;51.142;16.892;2024-01-30T00:03:46;20.90;58.50
6540;DHT22;50344;51.142;16.892;2024-01-30T00:06:13;20.90;57.70
6540;DHT22;50344;51.142;16.892;2024-01-30T00:08:39;20.80;58.20
6540;DHT22;50344;51.142;16.892;2024-01-30T00:11:04;20.90;58.40
6540;DHT22;50344;51.142;16.892;2024-01-30T00:13:30;20.90;58.30
6540;DHT22;50344;51.142;16.892;2024-01-30T00:15:56;20.90;58.50
6540;DHT22;50344;51.142;16.892;2024-01-30T00:18:21;20.90;58.30
6540;DHT22;50344;51.142;16.892;2024-01-30T00:20:47;20.90;58.30
6540;DHT22;50344;51.142;16.892;2024-01-30T00:23:12;20.90;58.40
6540;DHT22;50344;51.142;16.892;2024-01-30T00:25:38;20.80;58.40
6540;DHT22;50344;51.142;16.892;2024-01-30T00:28:04;20.80;58.30
6540;DHT22;50344;51.142;16.892;2024-01-30T00:30:29;20.90;58.50
6540;DHT22;50344;51.142;16.892;2024-01-30T00:32:55;20.80;58.20
6540;DHT22;50344;51.142;16.892;2024-01-30T00:35:20;20.90;58.30
6540;DHT22;50344;51.142;16.892;2024-01-30T00:37:48;20.90;58.10
6540;DHT22;50344;51.142;16.892;2024-01-30T00:40:13;20.90;58.40
6540;DHT22;50344;51.142;16.892;2024-01-30T00:42:41;20.90;58.50
6540;DHT22;50344;51.142;16.892;2024-01-30T00:45:11;20.90;58.30
6540;DHT22;50344;51.142;16.892;2024-01-30T00:47:36;20.80;58.10
6540;DHT22;50344;51.142;16.892;2024-01-30T00:50:02;20.80;58.10
6540;DHT22;50344;51.142;16.892;2024-01-30T00:52:28;20.80;58.20
6540;DHT22;50344;51.142;16.892;2024-01-30T00:54:53;20.80;58.10
6540;DHT22;50344;51.142;16.892;2024-01-30T00:57:19;20.80;58.20
6540;DHT22;50344;51.142;16.892;2024-01-30T00:59:44;20.90;58.40
6540;DHT22;50344;51.142;16.892;2024-01-30T01:02:10;20.90;58.20
6540;DHT22;50344;51.142;16.892;2024-01-30T01:04:35;20.80;58.20
6540;DHT22;50344;51.142;16.892;2024-01-30T01:07:01;20.80;58.00
6540;DHT22;50344;51.142;16.892;2024-01-30T01:09:26;20.80;58.10
6540;DHT22;50344;51.142;16.892;2024-01-30T01:11:52;20.90;58.10
6540;DHT22;50344;51.142;16.892;2024-01-30T01:14:17;20.80;57.90
6540;DHT22;50344;51.142;16.892;2024-01-30T01:16:43;20.80;57.90
6540;DHT22;50344;51.142;16.892;2024-01-30T01:19:09;20.80;58.10
6540;DHT22;50344;51.142;16.892;2024-01-30T01:21:34;20.80;57.80
6540;DHT22;50344;51.142;16.892;2024-01-30T01:24:00;20.80;58.10
6540;DHT22;50344;51.142;16.892;2024-01-30T01:26:25;20.80;58.00
6540;DHT22;50344;51.142;16.892;2024-01-30T01:28:51;20.80;58.00
6540;DHT22;50344;51.142;16.892;2024-01-30T01:31:16;20.80;57.90
6540;DHT22;50344;51.142;16.892;2024-01-30T01:33:43;20.80;57.90
6540;DHT22;50344;51.142;16.892;2024-01-30T01:36:08;20.80;58.00
6540;DHT22;50344;51.142;16.892;2024-01-30T01:38:34;20.80;57.90
6540;DHT22;50344;51.142;16.892;2024-01-30T01:40:59;21.20;58.30
6540;DHT22;50344;51.142;16.892;2024-01-30T01:43:25;20.80;58.00
6540;DHT22;50344;51.142;16.892;2024-01-30T01:45:50;20.80;58.00
6540;DHT22;50344;51.142;16.892;2024-01-30T01:48:16;20.80;57.80
6540;DHT22;50344;51.142;16.892;2024-01-30T01:50:42;20.80;57.90
6540;DHT22;50344;51.142;16.892;2024-01-30T01:53:09;20.80;57.30
6540;DHT22;50344;51.142;16.892;2024-01-30T01:55:35;20.70;58.00
6540;DHT22;50344;51.142;16.892;2024-01-30T01:58:02;20.70;57.30
6540;DHT22;50344;51.142;16.892;2024-01-30T02:00:27;20.80;57.90
6540;DHT22;50344;51.142;16.892;2024-01-30T02:02:54;20.80;57.90
6540;DHT22;50344;51.142;16.892;2024-01-30T02:05:19;20.80;57.90
6540;DHT22;50344;51.142;16.892;2024-01-30T02:07:45;20.80;57.70
6540;DHT22;50344;51.142;16.892;2024-01-30T02:10:11;20.80;57.70
6540;DHT22;50344;51.142;16.892;2024-01-30T02:12:37;20.80;57.80
6540;DHT22;50344;51.142;16.892;2024-01-30T02:15:03;20.70;57.70
6540;DHT22;50344;51.142;16.892;2024-01-30T02:17:30;20.80;57.80
6540;DHT22;50344;51.142;16.892;2024-01-30T02:19:55;20.70;57.60
6540;DHT22;50344;51.142;16.892;2024-01-30T02:22:21;20.80;57.60
6540;DHT22;50344;51.142;16.892;2024-01-30T02:24:47;20.70;57.80
6540;DHT22;50344;51.142;16.892;2024-01-30T02:27:13;20.80;57.80
6540;DHT22;50344;51.142;16.892;2024-01-30T02:29:38;20.70;57.60
6540;DHT22;50344;51.142;16.892;2024-01-30T02:32:04;20.70;57.60
6540;DHT22;50344;51.142;16.892;2024-01-30T02:34:29;20.80;57.90
6540;DHT22;50344;51.142;16.892;2024-01-30T02:36:55;20.70;57.50
6540;DHT22;50344;51.142;16.892;2024-01-30T02:39:20;20.70;57.40
6540;DHT22;50344;51.142;16.892;2024-01-30T02:41:46;20.70;57.40
6540;DHT22;50344;51.142;16.892;2024-01-30T02:44:11;20.70;57.40
6540;DHT22;50344;51.142;16.892;2024-01-30T02:46:37;20.70;57.50
6540;DHT22;50344;51.142;16.892;2024-01-30T02:49:02;20.70;57.40
6540;DHT22;50344;51.142;16.892;2024-01-30T02:51:28;20.70;57.50
6540;DHT22;50344;51.142;16.892;2024-01-30T02:53:53;20.80;57.50
6540;DHT22;50344;51.142;16.892;2024-01-30T02:56:19;20.80;57.40
6540;DHT22;50344;51.142;16.892;2024-01-30T02:58:44;20.70;57.20
6540;DHT22;50344;51.142;16.892;2024-01-30T03:01:10;20.70;57.40
6540;DHT22;50344;51.142;16.892;2024-01-30T03:03:35;20.80;57.40
6540;DHT22;50344;51.142;16.892;2024-01-30T03:06:02;20.70;57.20
6540;DHT22;50344;51.142;16.892;2024-01-30T03:08:28;20.60;56.60
6540;DHT22;50344;51.142;16.892;2024-01-30T03:10:53;20.70;57.30
6540;DHT22;50344;51.142;16.892;2024-01-30T03:13:19;20.70;57.30
6540;DHT22;50344;51.142;16.892;2024-01-30T03:15:45;20.70;57.40
6540;DHT22;50344;51.142;16.892;2024-01-30T03:18:10;20.70;57.40
6540;DHT22;50344;51.142;16.892;2024-01-30T03:20:36;20.70;57.30
6540;DHT22;50344;51.142;16.892;2024-01-30T03:23:01;20.70;57.20
6540;DHT22;50344;51.142;16.892;2024-01-30T03:25:27;20.70;57.30
6540;DHT22;50344;51.142;16.892;2024-01-30T03:27:52;20.70;57.30
6540;DHT22;50344;51.142;16.892;2024-01-30T03:30:18;20.70;57.20
6540;DHT22;50344;51.142;16.892;2024-01-30T03:32:44;20.70;57.20
6540;DHT22;50344;51.142;16.892;2024-01-30T03:35:09;21.20;57.70
6540;DHT22;50344;51.142;16.892;2024-01-30T03:37:35;20.70;57.10
6540;DHT22;50344;51.142;16.892;2024-01-30T03:40:01;20.60;57.30
6540;DHT22;50344;51.142;16.892;2024-01-30T03:42:26;20.70;57.20
6540;DHT22;50344;51.142;16.892;2024-01-30T03:44:52;20.60;57.10
6540;DHT22;50344;51.142;16.892;2024-01-30T03:47:19;20.60;57.10
6540;DHT22;50344;51.142;16.892;2024-01-30T03:49:45;20.60;57.10
6540;DHT22;50344;51.142;16.892;2024-01-30T03:52:10;20.60;57.20
6540;DHT22;50344;51.142;16.892;2024-01-30T03:54:36;20.60;57.10
6540;DHT22;50344;51.142;16.892;2024-01-30T03:57:01;20.60;57.10
6540;DHT22;50344;51.142;16.892;2024-01-30T03:59:27;20.70;57.30
6540;DHT22;50344;51.142;16.892;2024-01-30T04:01:53;20.70;57.00
6540;DHT22;50344;51.142;16.892;2024-01-30T04:04:18;20.60;57.00
6540;DHT22;50344;51.142;16.892;2024-01-30T04:06:44;20.60;57.00
6540;DHT22;50344;51.142;16.892;2024-01-30T04:09:10;20.50;56.80
6540;DHT22;50344;51.142;16.892;2024-01-30T04:11:36;20.60;57.10
6540;DHT22;50344;51.142;16.892;2024-01-30T04:14:02;20.70;57.00
6540;DHT22;50344;51.142;16.892;2024-01-30T04:16:27;20.60;56.90
6540;DHT22;50344;51.142;16.892;2024-01-30T04:18:53;20.70;57.00
6540;DHT22;50344;51.142;16.892;2024-01-30T04:21:20;20.60;57.10
6540;DHT22;50344;51.142;16.892;2024-01-30T04:23:45;20.60;56.90
6540;DHT22;50344;51.142;16.892;2024-01-30T04:26:11;20.60;56.80
6540;DHT22;50344;51.142;16.892;2024-01-30T04:28:37;20.60;57.20
6540;DHT22;50344;51.142;16.892;2024-01-30T04:31:03;20.60;56.90
6540;DHT22;50344;51.142;16.892;2024-01-30T04:33:28;20.60;56.90
6540;DHT22;50344;51.142;16.892;2024-01-30T04:35:54;20.60;57.00
6540;DHT22;50344;51.142;16.892;2024-01-30T04:38:19;20.60;56.90
6540;DHT22;50344;51.142;16.892;2024-01-30T04:40:45;20.50;57.00
6540;DHT22;50344;51.142;16.892;2024-01-30T04:43:10;20.60;56.90
6540;DHT22;50344;51.142;16.892;2024-01-30T04:45:36;20.70;57.00
6540;DHT22;50344;51.142;16.892;2024-01-30T04:48:01;20.60;56.90
6540;DHT22;50344;51.142;16.892;2024-01-30T04:50:27;20.60;57.10
6540;DHT22;50344;51.142;16.892;2024-01-30T04:52:53;20.70;56.80
6540;DHT22;50344;51.142;16.892;2024-01-30T04:55:18;20.50;56.80
6540;DHT22;50344;51.142;16.892;2024-01-30T04:57:44;20.60;56.80
6540;DHT22;50344;51.142;16.892;2024-01-30T05:00:09;20.60;56.70
6540;DHT22;50344;51.142;16.892;2024-01-30T05:02:35;20.50;56.60
6540;DHT22;50344;51.142;16.892;2024-01-30T05:05:01;20.60;56.70
6540;DHT22;50344;51.142;16.892;2024-01-30T05:07:26;20.60;56.70
6540;DHT22;50344;51.142;16.892;2024-01-30T05:09:52;20.60;56.80
6540;DHT22;50344;51.142;16.892;2024-01-30T05:12:17;20.60;56.70
6540;DHT22;50344;51.142;16.892;2024-01-30T05:14:43;20.60;56.80
6540;DHT22;50344;51.142;16.892;2024-01-30T05:17:08;20.60;56.70
6540;DHT22;50344;51.142;16.892;2024-01-30T05:19:35;20.60;56.70
6540;DHT22;50344;51.142;16.892;2024-01-30T05:22:01;20.60;56.60
6540;DHT22;50344;51.142;16.892;2024-01-30T05:24:26;20.60;56.90
6540;DHT22;50344;51.142;16.892;2024-01-30T05:26:52;20.60;56.80
6540;DHT22;50344;51.142;16.892;2024-01-30T05:29:17;20.50;56.60
6540;DHT22;50344;51.142;16.892;2024-01-30T05:31:43;20.60;56.70
6540;DHT22;50344;51.142;16.892;2024-01-30T05:34:08;20.50;56.70
6540;DHT22;50344;51.142;16.892;2024-01-30T05:36:34;20.60;56.70
6540;DHT22;50344;51.142;16.892;2024-01-30T05:39:00;20.60;56.70
6540;DHT22;50344;51.142;16.892;2024-01-30T05:41:25;20.60;56.80
6540;DHT22;50344;51.142;16.892;2024-01-30T05:43:51;20.70;56.70
6540;DHT22;50344;51.142;16.892;2024-01-30T05:46:17;19.90;55.90
6540;DHT22;50344;51.142;16.892;2024-01-30T05:48:42;20.60;56.80
6540;DHT22;50344;51.142;16.892;2024-01-30T05:51:08;20.50;56.60
6540;DHT22;50344;51.142;16.892;2024-01-30T05:53:34;20.50;56.70
6540;DHT22;50344;51.142;16.892;2024-01-30T05:56:03;20.50;56.80
6540;DHT22;50344;51.142;16.892;2024-01-30T05:58:28;20.60;56.60
6540;DHT22;50344;51.142;16.892;2024-01-30T06:00:54;20.50;56.50
6540;DHT22;50344;51.142;16.892;2024-01-30T06:03:20;20.60;56.60
6540;DHT22;50344;51.142;16.892;2024-01-30T06:05:46;20.60;56.80
6540;DHT22;50344;51.142;16.892;2024-01-30T06:08:12;20.50;56.70
6540;DHT22;50344;51.142;16.892;2024-01-30T06:10:37;20.60;56.70
6540;DHT22;50344;51.142;16.892;2024-01-30T06:13:03;20.50;56.60
6540;DHT22;50344;51.142;16.892;2024-01-30T06:15:29;20.50;56.70
6540;DHT22;50344;51.142;16.892;2024-01-30T06:17:55;20.50;56.60
6540;DHT22;50344;51.142;16.892;2024-01-30T06:20:21;20.50;56.50
6540;DHT22;50344;51.142;16.892;2024-01-30T06:22:46;20.50;56.60
6540;DHT22;50344;51.142;16.892;2024-01-30T06:25:12;20.50;56.70
6540;DHT22;50344;51.142;16.892;2024-01-30T06:27:37;20.50;56.60
6540;DHT22;50344;51.142;16.892;2024-01-30T06:30:04;20.50;56.80
6540;DHT22;50344;51.142;16.892;2024-01-30T06:32:29;20.60;56.90
6540;DHT22;50344;51.142;16.892;2024-01-30T06:35:02;20.50;56.60
6540;DHT22;50344;51.142;16.892;2024-01-30T06:37:28;20.60;56.60
6540;DHT22;50344;51.142;16.892;2024-01-30T06:39:55;20.50;55.80
6540;DHT22;50344;51.142;16.892;2024-01-30T06:42:21;20.50;56.50
6540;DHT22;50344;51.142;16.892;2024-01-30T06:44:46;20.60;57.30
6540;DHT22;50344;51.142;16.892;2024-01-30T06:47:12;20.60;56.40
6540;DHT22;50344;51.142;16.892;2024-01-30T06:49:37;20.50;56.30
6540;DHT22;50344;51.142;16.892;2024-01-30T06:52:07;20.50;55.50
6540;DHT22;50344;51.142;16.892;2024-01-30T06:54:33;20.40;56.20
6540;DHT22;50344;51.142;16.892;2024-01-30T06:56:59;20.50;56.20
6540;DHT22;50344;51.142;16.892;2024-01-30T06:59:24;20.50;56.20
6540;DHT22;50344;51.142;16.892;2024-01-30T07:01:50;20.20;56.00
6540;DHT22;50344;51.142;16.892;2024-01-30T07:04:15;20.50;56.20
6540;DHT22;50344;51.142;16.892;2024-01-30T07:06:41;20.50;55.90
6540;DHT22;50344;51.142;16.892;2024-01-30T07:09:07;20.50;56.20
6540;DHT22;50344;51.142;16.892;2024-01-30T07:11:33;20.50;56.00
6540;DHT22;50344;51.142;16.892;2024-01-30T07:13:59;20.50;56.00
6540;DHT22;50344;51.142;16.892;2024-01-30T07:16:25;20.50;55.70
6540;DHT22;50344;51.142;16.892;2024-01-30T07:18:50;20.50;55.90
6540;DHT22;50344;51.142;16.892;2024-01-30T07:21:16;21.10;56.50
6540;DHT22;50344;51.142;16.892;2024-01-30T07:23:42;20.50;55.90
6540;DHT22;50344;51.142;16.892;2024-01-30T07:26:08;20.50;55.80
6540;DHT22;50344;51.142;16.892;2024-01-30T07:28:34;20.50;55.80
6540;DHT22;50344;51.142;16.892;2024-01-30T07:31:01;20.50;57.20
6540;DHT22;50344;51.142;16.892;2024-01-30T07:33:27;20.50;55.90
6540;DHT22;50344;51.142;16.892;2024-01-30T07:35:53;19.80;55.10
6540;DHT22;50344;51.142;16.892;2024-01-30T07:38:19;20.40;55.60
6540;DHT22;50344;51.142;16.892;2024-01-30T07:40:44;20.50;55.60
6540;DHT22;50344;51.142;16.892;2024-01-30T07:43:10;20.50;55.60
6540;DHT22;50344;51.142;16.892;2024-01-30T07:45:35;20.40;55.50
6540;DHT22;50344;51.142;16.892;2024-01-30T07:48:02;20.50;55.50
6540;DHT22;50344;51.142;16.892;2024-01-30T07:50:28;20.50;55.50
6540;DHT22;50344;51.142;16.892;2024-01-30T07:52:55;20.50;55.50
6540;DHT22;50344;51.142;16.892;2024-01-30T07:55:21;20.50;55.60
6540;DHT22;50344;51.142;16.892;2024-01-30T07:57:52;20.40;55.00
6540;DHT22;50344;51.142;16.892;2024-01-30T08:00:18;20.40;55.30
6540;DHT22;50344;51.142;16.892;2024-01-30T08:02:45;20.50;55.40
6540;DHT22;50344;51.142;16.892;2024-01-30T08:05:10;20.40;55.30
6540;DHT22;50344;51.142;16.892;2024-01-30T08:07:36;20.50;55.20
6540;DHT22;50344;51.142;16.892;2024-01-30T08:10:02;20.50;55.10
6540;DHT22;50344;51.142;16.892;2024-01-30T08:12:28;20.40;55.10
6540;DHT22;50344;51.142;16.892;2024-01-30T08:14:53;20.50;55.10
6540;DHT22;50344;51.142;16.892;2024-01-30T08:17:19;20.50;55.10
6540;DHT22;50344;51.142;16.892;2024-01-30T08:19:44;20.40;55.00
6540;DHT22;50344;51.142;16.892;2024-01-30T08:22:11;20.50;55.00
6540;DHT22;50344;51.142;16.892;2024-01-30T08:24:36;20.60;55.80
6540;DHT22;50344;51.142;16.892;2024-01-30T08:27:02;20.50;55.00
6540;DHT22;50344;51.142;16.892;2024-01-30T08:29:28;20.50;54.90
6540;DHT22;50344;51.142;16.892;2024-01-30T08:31:53;20.40;54.80
6540;DHT22;50344;51.142;16.892;2024-01-30T08:34:21;20.50;54.70
6540;DHT22;50344;51.142;16.892;2024-01-30T08:36:46;20.50;54.80
6540;DHT22;50344;51.142;16.892;2024-01-30T08:39:12;20.60;54.90
6540;DHT22;50344;51.142;16.892;2024-01-30T08:41:37;20.50;54.80
6540;DHT22;50344;51.142;16.892;2024-01-30T08:44:03;20.50;54.90
6540;DHT22;50344;51.142;16.892;2024-01-30T08:46:29;20.50;54.40
6540;DHT22;50344;51.142;16.892;2024-01-30T08:48:56;20.50;54.60
6540;DHT22;50344;51.142;16.892;2024-01-30T08:51:21;20.40;54.60
6540;DHT22;50344;51.142;16.892;2024-01-30T08:53:47;20.50;54.70
6540;DHT22;50344;51.142;16.892;2024-01-30T08:56:12;20.60;54.30
6540;DHT22;50344;51.142;16.892;2024-01-30T08:58:38;20.50;54.40
6540;DHT22;50344;51.142;16.892;2024-01-30T09:01:04;20.60;54.70
6540;DHT22;50344;51.142;16.892;2024-01-30T09:03:31;20.50;54.80
6540;DHT22;50344;51.142;16.892;2024-01-30T09:05:56;20.40;54.70
6540;DHT22;50344;51.142;16.892;2024-01-30T09:08:22;20.50;54.80
6540;DHT22;50344;51.142;16.892;2024-01-30T09:10:47;20.50;54.50
6540;DHT22;50344;51.142;16.892;2024-01-30T09:13:13;20.50;54.70
6540;DHT22;50344;51.142;16.892;2024-01-30T09:15:39;20.60;54.70
6540;DHT22;50344;51.142;16.892;2024-01-30T09:18:04;20.60;54.70
6540;DHT22;50344;51.142;16.892;2024-01-30T09:20:30;21.00;54.90
6540;DHT22;50344;51.142;16.892;2024-01-30T09:22:55;20.70;54.50
6540;DHT22;50344;51.142;16.892;2024-01-30T09:25:21;20.70;54.30
6540;DHT22;50344;51.142;16.892;2024-01-30T09:27:46;20.70;54.20
6540;DHT22;50344;51.142;16.892;2024-01-30T09:30:12;20.80;55.00
6540;DHT22;50344;51.142;16.892;2024-01-30T09:32:39;20.80;54.00
6540;DHT22;50344;51.142;16.892;2024-01-30T09:35:05;20.80;54.10
6540;DHT22;50344;51.142;16.892;2024-01-30T09:37:31;20.80;54.00
6540;DHT22;50344;51.142;16.892;2024-01-30T09:39:57;20.80;54.00
6540;DHT22;50344;51.142;16.892;2024-01-30T09:44:54;21.00;54.00
6540;DHT22;50344;51.142;16.892;2024-01-30T09:47:20;21.00;54.10
6540;DHT22;50344;51.142;16.892;2024-01-30T09:49:46;21.00;53.80
6540;DHT22;50344;51.142;16.892;2024-01-30T09:52:11;20.90;53.70
6540;DHT22;50344;51.142;16.892;2024-01-30T09:54:37;21.00;53.70
6540;DHT22;50344;51.142;16.892;2024-01-30T09:57:03;21.10;53.80
6540;DHT22;50344;51.142;16.892;2024-01-30T09:59:29;21.10;53.80
6540;DHT22;50344;51.142;16.892;2024-01-30T10:01:55;21.10;53.80
6540;DHT22;50344;51.142;16.892;2024-01-30T10:04:22;21.20;53.80
6540;DHT22;50344;51.142;16.892;2024-01-30T10:06:47;21.20;54.50
6540;DHT22;50344;51.142;16.892;2024-01-30T10:09:13;21.20;53.60
6540;DHT22;50344;51.142;16.892;2024-01-30T10:11:39;21.20;53.70
6540;DHT22;50344;51.142;16.892;2024-01-30T10:14:04;21.30;53.80
6540;DHT22;50344;51.142;16.892;2024-01-30T10:16:30;21.30;53.80
6540;DHT22;50344;51.142;16.892;2024-01-30T10:18:55;21.60;54.90
6540;DHT22;50344;51.142;16.892;2024-01-30T10:21:21;21.40;53.90
6540;DHT22;50344;51.142;16.892;2024-01-30T10:23:47;21.40;53.90
6540;DHT22;50344;51.142;16.892;2024-01-30T10:26:13;21.40;53.80
6540;DHT22;50344;51.142;16.892;2024-01-30T10:28:39;21.40;53.80
6540;DHT22;50344;51.142;16.892;2024-01-30T10:31:04;21.40;53.60
6540;DHT22;50344;51.142;16.892;2024-01-30T10:33:30;21.40;53.60
6540;DHT22;50344;51.142;16.892;2024-01-30T10:36:03;21.40;53.70
6540;DHT22;50344;51.142;16.892;2024-01-30T10:38:29;21.50;53.60
6540;DHT22;50344;51.142;16.892;2024-01-30T10:40:58;21.50;54.50
6540;DHT22;50344;51.142;16.892;2024-01-30T10:43:39;21.50;53.70
6540;DHT22;50344;51.142;16.892;2024-01-30T10:46:17;21.60;53.70
6540;DHT22;50344;51.142;16.892;2024-01-30T10:48:43;21.60;54.40
6540;DHT22;50344;51.142;16.892;2024-01-30T10:51:10;21.60;53.60
6540;DHT22;50344;51.142;16.892;2024-01-30T10:53:36;21.60;53.70
6540;DHT22;50344;51.142;16.892;2024-01-30T10:56:02;21.70;54.50
6540;DHT22;50344;51.142;16.892;2024-01-30T10:58:29;21.60;53.70
6540;DHT22;50344;51.142;16.892;2024-01-30T11:00:54;21.60;53.50
6540;DHT22;50344;51.142;16.892;2024-01-30T11:03:20;22.00;54.70
6540;DHT22;50344;51.142;16.892;2024-01-30T11:05:50;21.70;53.60
6540;DHT22;50344;51.142;16.892;2024-01-30T11:08:23;21.80;53.40
6540;DHT22;50344;51.142;16.892;2024-01-30T11:10:54;22.00;53.60
6540;DHT22;50344;51.142;16.892;2024-01-30T11:13:19;21.80;53.50
6540;DHT22;50344;51.142;16.892;2024-01-30T11:15:47;21.90;53.30
6540;DHT22;50344;51.142;16.892;2024-01-30T11:18:22;22.00;53.80
6540;DHT22;50344;51.142;16.892;2024-01-30T11:20:47;22.20;53.70
6540;DHT22;50344;51.142;16.892;2024-01-30T11:23:13;22.40;54.00
6540;DHT22;50344;51.142;16.892;2024-01-30T11:25:39;22.60;53.90
6540;DHT22;50344;51.142;16.892;2024-01-30T11:32:58;23.80;46.50
6540;DHT22;50344;51.142;16.892;2024-01-30T11:35:24;24.00;46.30
6540;DHT22;50344;51.142;16.892;2024-01-30T11:37:49;24.10;46.80
6540;DHT22;50344;51.142;16.892;2024-01-30T11:40:15;24.40;49.90
6540;DHT22;50344;51.142;16.892;2024-01-30T11:45:07;24.40;44.90
6540;DHT22;50344;51.142;16.892;2024-01-30T11:47:34;25.00;45.40
6540;DHT22;50344;51.142;16.892;2024-01-30T11:50:00;25.00;45.30
6540;DHT22;50344;51.142;16.892;2024-01-30T11:52:25;25.00;45.10
6540;DHT22;50344;51.142;16.892;2024-01-30T11:54:51;25.10;41.70
6540;DHT22;50344;51.142;16.892;2024-01-30T11:57:17;25.40;44.60
6540;DHT22;50344;51.142;16.892;2024-01-30T11:59:42;25.60;45.40
6540;DHT22;50344;51.142;16.892;2024-01-30T12:02:08;25.80;49.20
6540;DHT22;50344;51.142;16.892;2024-01-30T12:04:33;25.80;48.10
6540;DHT22;50344;51.142;16.892;2024-01-30T12:06:59;25.80;48.40
6540;DHT22;50344;51.142;16.892;2024-01-30T12:09:24;25.90;48.60
6540;DHT22;50344;51.142;16.892;2024-01-30T12:11:50;25.90;48.60
6540;DHT22;50344;51.142;16.892;2024-01-30T12:14:16;25.90;48.80
6540;DHT22;50344;51.142;16.892;2024-01-30T12:16:41;25.60;45.60
6540;DHT22;50344;51.142;16.892;2024-01-30T12:19:07;25.50;46.50
6540;DHT22;50344;51.142;16.892;2024-01-30T12:21:33;25.50;48.30
6540;DHT22;50344;51.142;16.892;2024-01-30T12:23:59;25.40;49.20
6540;DHT22;50344;51.142;16.892;2024-01-30T12:26:25;25.20;44.80
6540;DHT22;50344;51.142;16.892;2024-01-30T12:28:53;25.10;45.00
6540;DHT22;50344;51.142;16.892;2024-01-30T12:31:25;25.00;48.10
6540;DHT22;50344;51.142;16.892;2024-01-30T12:33:51;24.80;48.90
6540;DHT22;50344;51.142;16.892;2024-01-30T12:38:42;24.70;48.90
6540;DHT22;50344;51.142;16.892;2024-01-30T13:17:40;23.20;43.80
6540;DHT22;50344;51.142;16.892;2024-01-30T13:20:07;23.20;39.40
6540;DHT22;50344;51.142;16.892;2024-01-30T13:22:33;23.00;43.60
6540;DHT22;50344;51.142;16.892;2024-01-30T13:24:59;22.90;45.00
6540;DHT22;50344;51.142;16.892;2024-01-30T13:27:24;23.00;43.60
6540;DHT22;50344;51.142;16.892;2024-01-30T13:29:50;22.80;51.00
6540;DHT22;50344;51.142;16.892;2024-01-30T14:28:27;22.30;56.70
6540;DHT22;50344;51.142;16.892;2024-01-30T14:30:52;22.10;54.10
6540;DHT22;50344;51.142;16.892;2024-01-30T14:33:18;22.00;54.80
6540;DHT22;50344;51.142;16.892;2024-01-30T14:35:43;21.80;52.30
6540;DHT22;50344;51.142;16.892;2024-01-30T14:38:09;21.90;52.50
6540;DHT22;50344;51.142;16.892;2024-01-30T14:40:35;21.60;54.10
6540;DHT22;50344;51.142;16.892;2024-01-30T14:43:00;22.10;55.10
6540;DHT22;50344;51.142;16.892;2024-01-30T14:45:26;21.80;54.10
6540;DHT22;50344;51.142;16.892;2024-01-30T14:47:51;21.80;53.90
6540;DHT22;50344;51.142;16.892;2024-01-30T14:50:17;21.80;53.10
6540;DHT22;50344;51.142;16.892;2024-01-30T14:52:43;21.70;50.70
6540;DHT22;50344;51.142;16.892;2024-01-30T14:55:09;21.70;53.00
6540;DHT22;50344;51.142;16.892;2024-01-30T14:57:35;21.70;53.00
6540;DHT22;50344;51.142;16.892;2024-01-30T15:00:01;20.90;52.30
6540;DHT22;50344;51.142;16.892;2024-01-30T15:02:26;21.70;53.20
6540;DHT22;50344;51.142;16.892;2024-01-30T15:04:52;21.80;53.60
6540;DHT22;50344;51.142;16.892;2024-01-30T15:07:17;21.70;54.00
6540;DHT22;50344;51.142;16.892;2024-01-30T15:09:43;21.80;56.70
6540;DHT22;50344;51.142;16.892;2024-01-30T15:12:08;21.80;56.70
6540;DHT22;50344;51.142;16.892;2024-01-30T15:14:34;21.80;56.90
6540;DHT22;50344;51.142;16.892;2024-01-30T15:17:00;21.80;55.10
6540;DHT22;50344;51.142;16.892;2024-01-30T15:19:26;21.90;55.00
6540;DHT22;50344;51.142;16.892;2024-01-30T15:29:16;21.90;59.20
6540;DHT22;50344;51.142;16.892;2024-01-30T15:39:06;21.80;61.10
6540;DHT22;50344;51.142;16.892;2024-01-30T15:41:32;21.70;58.90
6540;DHT22;50344;51.142;16.892;2024-01-30T15:53:46;21.80;59.50
6540;DHT22;50344;51.142;16.892;2024-01-30T15:58:38;21.80;59.70
6540;DHT22;50344;51.142;16.892;2024-01-30T17:24:25;21.70;60.10
6540;DHT22;50344;51.142;16.892;2024-01-30T17:26:51;21.60;59.50
6540;DHT22;50344;51.142;16.892;2024-01-30T17:41:31;21.50;59.50
6540;DHT22;50344;51.142;16.892;2024-01-30T17:48:50;21.50;58.60
6540;DHT22;50344;51.142;16.892;2024-01-30T17:51:15;21.50;59.30
6540;DHT22;50344;51.142;16.892;2024-01-30T17:53:41;21.50;59.30
6540;DHT22;50344;51.142;16.892;2024-01-30T17:56:06;21.40;59.80
6540;DHT22;50344;51.142;16.892;2024-01-30T17:58:33;21.50;59.10
6540;DHT22;50344;51.142;16.892;2024-01-30T18:00:59;21.50;59.40
6540;DHT22;50344;51.142;16.892;2024-01-30T18:03:25;21.40;59.50
6540;DHT22;50344;51.142;16.892;2024-01-30T18:05:51;21.50;60.20
6540;DHT22;50344;51.142;16.892;2024-01-30T18:10:43;21.50;59.80
6540;DHT22;50344;51.142;16.892;2024-01-30T18:13:08;21.50;59.00
6540;DHT22;50344;51.142;16.892;2024-01-30T18:15:34;21.50;58.90
6540;DHT22;50344;51.142;16.892;2024-01-30T18:18:02;21.40;58.60
6540;DHT22;50344;51.142;16.892;2024-01-30T18:27:46;21.40;59.10
6540;DHT22;50344;51.142;16.892;2024-01-30T18:59:29;21.40;59.70
6540;DHT22;50344;51.142;16.892;2024-01-30T19:06:49;21.40;58.30
6540;DHT22;50344;51.142;16.892;2024-01-30T19:09:20;21.30;58.30
6540;DHT22;50344;51.142;16.892;2024-01-30T19:11:47;21.30;57.40
6540;DHT22;50344;51.142;16.892;2024-01-30T19:14:12;21.30;57.60
6540;DHT22;50344;51.142;16.892;2024-01-30T19:16:38;21.30;57.30
6540;DHT22;50344;51.142;16.892;2024-01-30T19:19:03;21.30;57.90
6540;DHT22;50344;51.142;16.892;2024-01-30T19:21:34;21.40;57.10
6540;DHT22;50344;51.142;16.892;2024-01-30T19:24:01;21.30;57.80
6540;DHT22;50344;51.142;16.892;2024-01-30T19:26:27;21.30;57.50
6540;DHT22;50344;51.142;16.892;2024-01-30T19:28:52;21.20;57.20
6540;DHT22;50344;51.142;16.892;2024-01-30T19:31:18;21.30;57.50
6540;DHT22;50344;51.142;16.892;2024-01-30T19:33:44;21.20;57.20
6540;DHT22;50344;51.142;16.892;2024-01-30T19:36:09;21.20;57.50
6540;DHT22;50344;51.142;16.892;2024-01-30T19:38:35;21.30;58.10
6540;DHT22;50344;51.142;16.892;2024-01-30T19:41:00;21.20;57.80
6540;DHT22;50344;51.142;16.892;2024-01-30T19:43:27;21.30;57.50
6540;DHT22;50344;51.142;16.892;2024-01-30T19:45:53;21.20;57.20
6540;DHT22;50344;51.142;16.892;2024-01-30T19:48:18;21.30;57.80
6540;DHT22;50344;51.142;16.892;2024-01-30T19:50:44;21.30;57.00
6540;DHT22;50344;51.142;16.892;2024-01-30T19:53:10;21.30;57.10
6540;DHT22;50344;51.142;16.892;2024-01-30T19:55:35;21.30;57.10
6540;DHT22;50344;51.142;16.892;2024-01-30T19:58:01;21.30;56.70